Myerstown, Pennsylvania
Current Conditions -  °F | °C
As of 10:58 AM on Saturday 25 Oct 2014 (Local Time) from KMUI Reporting Station
Clear Clear  
Wind Chill: 16°   Ceiling: Unl
Heat Index: 16°   Visibility: 10mi
Dew Point:   Wind: 9mph
Humidity: 53%   Direction: 240°WSW
Pressure: 29.88"   Gusts: NA
Location:  40.37°N, 76.3°W
Report Text: KMUI 251458Z AUTO 24008KT 10SM CLR 17/07 A2988 RMK AO2 SLP120 T01650069 58013 $
Loading
Personal Weather Stations






























Interactive Weather Map
Tropical Storm Tracking
New forecast layout! Learn more

10-Day Weather Forecast

Advertisements
Track Severe Weather on mobile